createdAt,value
2018-12-15T00:00:04.177Z,102489.67
2018-12-15T00:02:35.333Z,102498.01
2018-12-15T00:05:05.849Z,102491.52
2018-12-15T00:07:35.767Z,102497.63
2018-12-15T00:10:07.193Z,102496.86
2018-12-15T00:12:37.028Z,102493.34
2018-12-15T00:15:08.341Z,102492.95
2018-12-15T00:17:38.301Z,102495.59
2018-12-15T00:20:08.214Z,102494.30
2018-12-15T00:22:37.648Z,102496.90
2018-12-15T00:25:07.171Z,102499.94
2018-12-15T00:27:36.507Z,102496.03
2018-12-15T00:30:06.275Z,102497.27
2018-12-15T00:32:35.603Z,102498.62
2018-12-15T00:35:05.510Z,102499.92
2018-12-15T00:37:34.848Z,102502.09
2018-12-15T00:40:04.672Z,102503.40
2018-12-15T00:42:34.713Z,102501.21
2018-12-15T00:45:05.583Z,102502.09
2018-12-15T00:47:35.123Z,102508.66
2018-12-15T00:50:04.577Z,102506.00
2018-12-15T00:52:33.968Z,102508.16
2018-12-15T00:55:03.366Z,102507.34
2018-12-15T00:57:32.614Z,102506.88
2018-12-15T01:00:02.010Z,102505.59
2018-12-15T01:02:36.004Z,102507.30
2018-12-15T01:05:05.624Z,102507.29
2018-12-15T01:07:35.303Z,102502.45
2018-12-15T01:10:06.160Z,102512.16
2018-12-15T01:12:35.540Z,102513.84
2018-12-15T01:15:05.299Z,102515.63
2018-12-15T01:17:34.695Z,102515.65
2018-12-15T01:20:04.154Z,102511.72
2018-12-15T01:22:34.456Z,102521.40
2018-12-15T01:25:04.526Z,102519.62
2018-12-15T01:27:34.056Z,102522.20
2018-12-15T01:30:03.436Z,102523.05
2018-12-15T01:32:32.777Z,102520.41
2018-12-15T01:35:02.150Z,102526.16
2018-12-15T01:37:31.851Z,102521.34
2018-12-15T01:40:01.597Z,102518.73
2018-12-15T01:42:30.890Z,102522.66
2018-12-15T01:45:00.237Z,102522.33
2018-12-15T01:47:29.799Z,102516.55
2018-12-15T01:49:59.311Z,102526.66
2018-12-15T01:52:28.737Z,102523.12
2018-12-15T01:54:58.150Z,102527.03
2018-12-15T01:57:27.447Z,102523.95
2018-12-15T01:59:56.874Z,102520.03
2018-12-15T02:02:26.181Z,102516.08
2018-12-15T02:04:55.458Z,102518.77
2018-12-15T02:07:24.800Z,102522.25
2018-12-15T02:09:54.131Z,102518.31
2018-12-15T02:12:23.399Z,102519.66
2018-12-15T02:14:52.726Z,102518.78
2018-12-15T02:17:22.786Z,102523.20
2018-12-15T02:19:52.484Z,102521.87
2018-12-15T02:22:21.786Z,102525.80
2018-12-15T02:24:51.031Z,102527.55
2018-12-15T02:27:20.662Z,102524.50
2018-12-15T02:29:49.963Z,102524.00
2018-12-15T02:32:19.360Z,102529.22
2018-12-15T02:34:48.746Z,102527.94
2018-12-15T02:37:18.091Z,102530.54
2018-12-15T02:39:47.382Z,102533.62
2018-12-15T02:42:16.687Z,102528.37
2018-12-15T02:44:45.966Z,102530.95
2018-12-15T02:47:15.692Z,102538.84
2018-12-15T02:49:45.109Z,102534.44
2018-12-15T02:52:14.549Z,102538.84
2018-12-15T02:54:43.819Z,102533.19
2018-12-15T02:57:13.485Z,102536.24
2018-12-15T02:59:42.996Z,102530.56
2018-12-15T03:02:12.304Z,102528.34
2018-12-15T03:04:41.534Z,102530.97
2018-12-15T03:07:10.850Z,102521.32
2018-12-15T03:09:40.207Z,102530.12
2018-12-15T03:12:09.504Z,102527.02
2018-12-15T03:14:40.033Z,102529.22
2018-12-15T03:17:09.337Z,102531.88
2018-12-15T03:19:38.783Z,102522.20
2018-12-15T03:22:08.065Z,102531.35
2018-12-15T03:24:37.534Z,102527.48
2018-12-15T03:27:06.859Z,102530.94
2018-12-15T03:29:36.186Z,102530.91
2018-12-15T03:32:05.765Z,102533.59
2018-12-15T03:34:35.050Z,102544.98
2018-12-15T03:37:04.494Z,102540.54
2018-12-15T03:39:34.357Z,102539.69
2018-12-15T03:42:03.766Z,102536.19
2018-12-15T03:44:33.119Z,102536.22
2018-12-15T03:47:02.467Z,102539.31
2018-12-15T03:49:31.783Z,102531.84
2018-12-15T03:52:01.461Z,102537.02
2018-12-15T03:54:30.996Z,102542.78
2018-12-15T03:57:00.684Z,102537.92
2018-12-15T03:59:30.387Z,102534.00
2018-12-15T04:01:59.906Z,102538.39
2018-12-15T04:04:30.558Z,102540.95
2018-12-15T04:07:00.117Z,102542.28
2018-12-15T04:09:29.500Z,102543.99
2018-12-15T04:11:58.906Z,102540.95
2018-12-15T04:14:28.193Z,102540.91
2018-12-15T04:16:57.577Z,102540.45
2018-12-15T04:19:26.964Z,102544.87
2018-12-15T04:22:06.227Z,102544.50
2018-12-15T04:24:35.688Z,102540.95
2018-12-15T04:27:05.207Z,102537.98
2018-12-15T04:29:34.425Z,102545.47
2018-12-15T04:32:03.806Z,102548.11
2018-12-15T04:34:33.031Z,102548.06
2018-12-15T04:37:02.797Z,102537.95
2018-12-15T04:39:32.266Z,102540.12
2018-12-15T04:42:01.943Z,102543.25
2018-12-15T04:44:31.224Z,102538.87
2018-12-15T04:47:01.572Z,102543.23
2018-12-15T04:49:30.852Z,102537.53
2018-12-15T04:52:00.088Z,102537.50
2018-12-15T04:54:29.488Z,102536.19
2018-12-15T04:56:58.719Z,102534.02
2018-12-15T04:59:28.097Z,102531.42
2018-12-15T05:01:57.433Z,102535.36
2018-12-15T05:04:26.728Z,102534.44
2018-12-15T05:06:56.133Z,102534.44
2018-12-15T05:09:25.473Z,102537.97
2018-12-15T05:11:54.743Z,102535.77
2018-12-15T05:14:24.044Z,102536.65
2018-12-15T05:16:53.420Z,102535.31
2018-12-15T05:19:22.674Z,102536.22
2018-12-15T05:21:51.915Z,102534.44
2018-12-15T05:24:21.182Z,102528.72
2018-12-15T05:26:50.791Z,102537.02
2018-12-15T05:29:21.289Z,102537.08
2018-12-15T05:31:50.581Z,102538.83
2018-12-15T05:34:19.964Z,102544.58
2018-12-15T05:39:35.726Z,102544.21
2018-12-15T05:42:05.510Z,102538.92
2018-12-15T05:44:35.613Z,102544.59
2018-12-15T05:47:04.828Z,102541.09
2018-12-15T05:49:34.147Z,102546.73
2018-12-15T05:52:03.627Z,102548.48
2018-12-15T05:54:33.280Z,102551.52
2018-12-15T05:57:02.570Z,102548.88
2018-12-15T05:59:32.896Z,102552.86
2018-12-15T06:02:03.669Z,102547.59
2018-12-15T06:04:33.345Z,102548.50
2018-12-15T06:07:02.630Z,102549.40
2018-12-15T06:09:31.879Z,102549.81
2018-12-15T06:12:03.233Z,102562.17
2018-12-15T06:14:32.603Z,102551.20
2018-12-15T06:17:01.915Z,102550.27
2018-12-15T06:19:31.295Z,102555.52
2018-12-15T06:22:00.562Z,102546.75
2018-12-15T06:24:29.866Z,102560.37
2018-12-15T06:27:00.602Z,102552.48
2018-12-15T06:29:30.158Z,102556.45
2018-12-15T06:31:59.415Z,102556.05
2018-12-15T06:34:29.824Z,102559.47
2018-12-15T06:36:59.168Z,102560.88
2018-12-15T06:39:28.489Z,102562.64
2018-12-15T06:42:00.222Z,102559.61
2018-12-15T06:44:29.601Z,102565.75
2018-12-15T06:46:58.895Z,102567.91
2018-12-15T06:49:29.770Z,102563.51
2018-12-15T06:51:59.192Z,102553.90
2018-12-15T06:54:28.619Z,102562.66
2018-12-15T06:56:59.383Z,102557.81
2018-12-15T06:59:28.868Z,102560.83
2018-12-15T07:02:01.150Z,102557.76
2018-12-15T07:04:30.984Z,102559.92
2018-12-15T07:07:00.285Z,102557.76
2018-12-15T07:09:29.736Z,102560.81
2018-12-15T07:11:59.160Z,102566.94
2018-12-15T07:14:31.170Z,102562.53
2018-12-15T07:17:00.705Z,102569.13
2018-12-15T07:19:30.052Z,102564.73
2018-12-15T07:21:59.375Z,102561.64
2018-12-15T07:24:28.767Z,102555.95
2018-12-15T07:26:58.234Z,102564.29
2018-12-15T07:29:27.603Z,102572.23
2018-12-15T07:31:56.955Z,102568.83
2018-12-15T07:34:26.315Z,102568.91
2018-12-15T07:36:55.572Z,102580.75
2018-12-15T07:39:25.045Z,102568.84
2018-12-15T07:41:54.893Z,102572.36
2018-12-15T07:44:25.123Z,102570.65
2018-12-15T07:46:54.428Z,102563.63
2018-12-15T07:49:23.727Z,102566.22
2018-12-15T07:51:53.099Z,102568.87
2018-12-15T07:54:24.343Z,102565.34
2018-12-15T07:56:53.751Z,102560.56
2018-12-15T07:59:23.018Z,102560.11
2018-12-15T08:01:52.379Z,102564.47
2018-12-15T08:04:22.758Z,102564.44
2018-12-15T08:06:52.121Z,102556.96
2018-12-15T08:09:21.481Z,102557.39
2018-12-15T08:11:56.320Z,102555.64
2018-12-15T08:14:27.004Z,102549.91
2018-12-15T08:16:56.382Z,102557.38
2018-12-15T08:19:26.391Z,102564.34
2018-12-15T08:21:56.717Z,102563.48
2018-12-15T08:24:26.232Z,102571.84
2018-12-15T08:26:58.874Z,102566.17
2018-12-15T08:29:28.179Z,102575.90
2018-12-15T08:31:57.760Z,102578.48
2018-12-15T08:34:27.019Z,102570.12
2018-12-15T08:36:56.404Z,102571.50
2018-12-15T08:39:25.904Z,102569.70
2018-12-15T08:41:55.371Z,102575.52
2018-12-15T08:44:24.693Z,102573.28
2018-12-15T08:46:54.111Z,102574.59
2018-12-15T08:49:27.120Z,102576.34
2018-12-15T08:51:56.561Z,102571.42
2018-12-15T08:54:25.871Z,102582.00
2018-12-15T08:57:01.398Z,102572.33
2018-12-15T08:59:30.783Z,102578.03
2018-12-15T09:02:00.846Z,102576.72
2018-12-15T09:04:30.658Z,102573.25
2018-12-15T09:06:59.924Z,102573.20
2018-12-15T09:09:30.827Z,102569.14
2018-12-15T09:12:00.073Z,102577.06
2018-12-15T09:14:30.681Z,102578.44
2018-12-15T09:16:59.949Z,102584.62
2018-12-15T09:19:29.773Z,102575.41
2018-12-15T09:22:00.167Z,102576.73
2018-12-15T09:24:29.895Z,102568.89
2018-12-15T09:26:59.775Z,102577.19
2018-12-15T09:29:30.202Z,102578.91
2018-12-15T09:31:59.515Z,102581.06
2018-12-15T09:34:28.900Z,102577.56
2018-12-15T09:36:59.188Z,102585.92
2018-12-15T09:39:31.253Z,102576.67
2018-12-15T09:42:02.145Z,102564.36
2018-12-15T09:44:32.535Z,102570.45
2018-12-15T09:47:01.945Z,102568.23
2018-12-15T09:49:31.297Z,102562.52
2018-12-15T09:52:11.494Z,102560.36
2018-12-15T09:55:01.508Z,102561.20
2018-12-15T09:57:39.785Z,102564.66
2018-12-15T10:00:09.479Z,102562.03
2018-12-15T10:02:38.849Z,102558.09
2018-12-15T10:05:08.897Z,102554.50
2018-12-15T10:07:38.128Z,102558.85
2018-12-15T10:10:07.735Z,102554.36
2018-12-15T10:12:37.121Z,102554.30
2018-12-15T10:15:06.494Z,102546.39
2018-12-15T10:17:35.963Z,102543.29
2018-12-15T10:20:05.914Z,102547.98
2018-12-15T10:22:35.203Z,102543.93
2018-12-15T10:25:06.480Z,102545.67
2018-12-15T10:27:39.090Z,102540.83
2018-12-15T10:30:14.040Z,102540.08
2018-12-15T10:32:50.068Z,102540.92
2018-12-15T10:35:20.699Z,102539.55
2018-12-15T10:37:49.999Z,102537.30
2018-12-15T10:40:20.353Z,102533.95
2018-12-15T10:42:52.279Z,102534.29
2018-12-15T10:45:22.572Z,102525.66
2018-12-15T10:47:51.878Z,102518.84
2018-12-15T10:50:22.034Z,102512.62
2018-12-15T10:52:54.552Z,102510.31
2018-12-15T10:55:24.422Z,102511.63
2018-12-15T10:57:53.703Z,102508.57
2018-12-15T11:00:29.520Z,102500.41
2018-12-15T11:03:03.324Z,102502.60
2018-12-15T11:05:33.501Z,102501.01
2018-12-15T11:08:04.164Z,102494.97
2018-12-15T11:10:33.640Z,102491.46
2018-12-15T11:13:04.842Z,102483.92
2018-12-15T11:15:37.519Z,102486.19
2018-12-15T11:18:07.697Z,102487.89
2018-12-15T11:20:37.226Z,102481.23
2018-12-15T11:23:07.797Z,102478.84
2018-12-15T11:25:38.991Z,102476.71
2018-12-15T11:28:08.463Z,102476.91
2018-12-15T11:30:41.605Z,102465.41
2018-12-15T11:33:16.336Z,102465.08
2018-12-15T11:35:46.526Z,102461.61
2018-12-15T11:38:17.507Z,102457.22
2018-12-15T11:40:49.884Z,102465.13
2018-12-15T11:43:23.309Z,102459.09
2018-12-15T11:45:53.034Z,102468.66
2018-12-15T11:48:23.078Z,102465.08
2018-12-15T11:50:57.846Z,102461.95
2018-12-15T11:53:36.726Z,102455.32
2018-12-15T11:56:07.992Z,102449.02
2018-12-15T11:58:38.804Z,102448.72
2018-12-15T12:01:12.701Z,102445.14
2018-12-15T12:03:42.340Z,102439.95
2018-12-15T12:06:12.175Z,102438.14
2018-12-15T12:08:44.166Z,102433.34
2018-12-15T12:11:14.661Z,102436.33
2018-12-15T12:13:44.253Z,102425.88
2018-12-15T12:16:14.260Z,102420.52
2018-12-15T12:18:43.600Z,102420.72
2018-12-15T12:21:13.009Z,102422.56
2018-12-15T12:23:44.114Z,102418.20
2018-12-15T12:26:13.857Z,102413.80
2018-12-15T12:28:43.430Z,102415.50
2018-12-15T12:31:13.713Z,102411.94
2018-12-15T12:33:43.424Z,102415.48
2018-12-15T12:36:12.908Z,102413.34
2018-12-15T12:38:48.209Z,102409.03
2018-12-15T12:41:18.706Z,102406.31
2018-12-15T12:43:48.360Z,102405.36
2018-12-15T12:46:17.770Z,102400.48
2018-12-15T12:48:46.984Z,102403.02
2018-12-15T12:51:16.229Z,102408.63
2018-12-15T12:53:48.302Z,102410.74
2018-12-15T12:56:18.047Z,102410.34
2018-12-15T12:58:47.579Z,102408.09
2018-12-15T13:01:17.238Z,102407.08
2018-12-15T13:03:47.410Z,102409.73
2018-12-15T13:06:19.581Z,102406.88
2018-12-15T13:08:50.758Z,102409.98
2018-12-15T13:11:22.016Z,102416.55
2018-12-15T13:13:53.594Z,102413.14
2018-12-15T13:16:23.538Z,102408.02
2018-12-15T13:18:56.051Z,102407.71
2018-12-15T13:21:27.673Z,102407.83
2018-12-15T13:23:57.794Z,102411.34
2018-12-15T13:26:30.555Z,102401.24
2018-12-15T13:29:01.834Z,102400.33
2018-12-15T13:31:32.520Z,102394.17
2018-12-15T13:34:08.292Z,102400.37
2018-12-15T13:36:40.410Z,102399.92
2018-12-15T13:39:14.942Z,102409.09
2018-12-15T13:41:48.441Z,102405.60
2018-12-15T13:44:23.647Z,102407.37
2018-12-15T13:47:00.213Z,102405.69
2018-12-15T14:05:28.180Z,102398.55
2018-12-15T14:08:01.864Z,102395.94
2018-12-15T14:10:34.331Z,102389.73
2018-12-15T14:13:20.644Z,102391.48
2018-12-15T14:15:58.293Z,102390.57
2018-12-15T14:18:31.457Z,102386.78
2018-12-15T14:21:12.264Z,102386.79
2018-12-15T14:23:49.954Z,102387.28
2018-12-15T14:26:22.336Z,102382.89
2018-12-15T14:28:54.541Z,102387.28
2018-12-15T14:34:11.153Z,102380.73
2018-12-15T14:36:52.428Z,102375.56
2018-12-15T14:39:23.581Z,102368.90
2018-12-15T14:41:54.361Z,102375.07
2018-12-15T14:44:24.054Z,102376.41
2018-12-15T14:46:54.308Z,102372.92
2018-12-15T14:49:24.420Z,102370.31
2018-12-15T14:51:54.289Z,102365.42
2018-12-15T14:54:24.103Z,102355.80
2018-12-15T14:56:57.474Z,102359.28
2018-12-15T14:59:27.176Z,102354.02
2018-12-15T15:01:58.031Z,102351.32
2018-12-15T15:04:28.807Z,102339.11
2018-12-15T15:07:00.185Z,102336.86
2018-12-15T15:09:31.494Z,102340.38
2018-12-15T15:12:06.492Z,102341.73
2018-12-15T15:14:36.469Z,102340.02
2018-12-15T15:17:06.462Z,102333.06
2018-12-15T15:19:36.482Z,102334.00
2018-12-15T15:22:10.986Z,102331.38
2018-12-15T15:24:43.687Z,102327.07
2018-12-15T15:27:16.969Z,102326.19
2018-12-15T15:29:50.210Z,102319.23
2018-12-15T15:32:20.968Z,102316.66
2018-12-15T15:34:52.715Z,102313.52
2018-12-15T15:37:22.405Z,102313.08
2018-12-15T15:39:52.678Z,102306.52
2018-12-15T15:42:22.598Z,102303.91
2018-12-15T15:44:51.912Z,102303.93
2018-12-15T15:47:21.306Z,102295.66
2018-12-15T15:49:50.671Z,102295.64
2018-12-15T15:52:20.176Z,102298.24
2018-12-15T15:54:49.619Z,102298.24
2018-12-15T15:57:18.901Z,102290.41
2018-12-15T15:59:48.123Z,102288.68
2018-12-15T16:02:17.651Z,102286.96
2018-12-15T16:04:47.300Z,102283.92
2018-12-15T16:07:16.596Z,102280.00
2018-12-15T16:09:47.145Z,102283.05
2018-12-15T16:12:16.456Z,102282.62
2018-12-15T16:14:45.802Z,102278.26
2018-12-15T16:17:15.244Z,102271.25
2018-12-15T16:19:44.821Z,102268.66
2018-12-15T16:22:14.159Z,102267.80
2018-12-15T16:24:44.544Z,102265.16
2018-12-15T16:27:13.957Z,102260.39
2018-12-15T16:29:43.296Z,102260.81
2018-12-15T16:32:12.609Z,102264.34
2018-12-15T16:34:41.898Z,102264.77
2018-12-15T16:37:11.490Z,102258.19
2018-12-15T16:39:40.862Z,102258.19
2018-12-15T16:42:10.466Z,102256.46
2018-12-15T16:44:41.104Z,102242.42
2018-12-15T16:47:10.399Z,102237.17
2018-12-15T16:49:39.726Z,102230.20
2018-12-15T16:52:09.255Z,102228.43
2018-12-15T16:54:38.861Z,102221.45
2018-12-15T16:57:08.159Z,102224.94
2018-12-15T16:59:37.837Z,102219.29
2018-12-15T17:02:07.260Z,102217.94
2018-12-15T17:04:37.627Z,102210.94
2018-12-15T17:07:07.016Z,102218.39
2018-12-15T17:09:36.341Z,102216.17
2018-12-15T17:12:05.720Z,102222.73
2018-12-15T17:14:36.688Z,102214.41
2018-12-15T17:17:09.617Z,102212.70
2018-12-15T17:19:38.985Z,102210.48
2018-12-15T17:22:08.289Z,102203.93
2018-12-15T17:24:37.693Z,102200.88
2018-12-15T17:27:07.057Z,102201.27
2018-12-15T17:29:36.361Z,102199.52
2018-12-15T17:32:05.628Z,102196.90
2018-12-15T17:34:35.237Z,102197.33
2018-12-15T17:37:04.576Z,102189.47
2018-12-15T17:39:34.342Z,102187.72
2018-12-15T17:42:03.932Z,102184.64
2018-12-15T17:44:33.283Z,102178.44
2018-12-15T17:47:02.690Z,102181.94
2018-12-15T17:49:32.182Z,102186.72
2018-12-15T17:52:01.650Z,102179.75
2018-12-15T17:54:30.995Z,102177.59
2018-12-15T17:57:00.514Z,102173.20
2018-12-15T17:59:29.842Z,102171.45
2018-12-15T18:01:59.662Z,102170.97
2018-12-15T18:04:29.000Z,102172.30
2018-12-15T18:06:58.559Z,102161.80
2018-12-15T18:09:28.103Z,102153.95
2018-12-15T18:11:57.380Z,102150.83
2018-12-15T18:14:26.704Z,102150.78
2018-12-15T18:16:56.247Z,102146.95
2018-12-15T18:19:25.911Z,102134.29
2018-12-15T18:21:55.492Z,102136.02
2018-12-15T18:24:24.773Z,102125.06
2018-12-15T18:26:54.592Z,102130.70
2018-12-15T18:29:24.003Z,102125.41
2018-12-15T18:31:53.760Z,102123.23
2018-12-15T18:34:23.185Z,102124.09
2018-12-15T18:36:52.536Z,102127.12
2018-12-15T18:39:21.959Z,102115.76
2018-12-15T18:41:52.559Z,102112.66
2018-12-15T18:44:21.849Z,102108.28
2018-12-15T18:49:31.641Z,102095.11
2018-12-15T18:52:01.583Z,102097.80
2018-12-15T18:54:31.567Z,102082.05
2018-12-15T18:57:01.179Z,102090.84
2018-12-15T18:59:30.711Z,102086.41
2018-12-15T19:02:02.234Z,102085.10
2018-12-15T19:04:31.515Z,102079.45
2018-12-15T19:07:01.064Z,102071.58
2018-12-15T19:09:30.969Z,102075.97
2018-12-15T19:12:00.722Z,102067.61
2018-12-15T19:14:30.154Z,102060.27
2018-12-15T19:16:59.433Z,102059.79
2018-12-15T19:19:28.944Z,102058.00
2018-12-15T19:21:58.249Z,102052.85
2018-12-15T19:24:28.638Z,102052.41
2018-12-15T19:26:57.921Z,102060.73
2018-12-15T19:29:27.248Z,102051.95
2018-12-15T19:31:56.598Z,102047.58
2018-12-15T19:34:25.831Z,102048.03
2018-12-15T19:36:55.194Z,102044.52
2018-12-15T19:39:24.560Z,102042.34
2018-12-15T19:41:54.043Z,102034.47
2018-12-15T19:44:23.412Z,102028.78
2018-12-15T19:46:52.647Z,102027.02
2018-12-15T19:49:22.259Z,102023.53
2018-12-15T19:51:52.658Z,102017.03
2018-12-15T19:54:22.908Z,102018.27
2018-12-15T19:56:52.312Z,101998.61
2018-12-15T19:59:21.550Z,102000.43
2018-12-15T20:01:50.933Z,101999.16
2018-12-15T20:04:20.865Z,102003.08
2018-12-15T20:06:50.508Z,101991.22
2018-12-15T20:09:20.262Z,101985.52
2018-12-15T20:11:50.127Z,101988.95
2018-12-15T20:14:19.685Z,101985.88
2018-12-15T20:16:49.077Z,101978.45
2018-12-15T20:19:19.790Z,101979.66
2018-12-15T20:21:49.997Z,101977.58
2018-12-15T20:24:20.740Z,101977.12
2018-12-15T20:26:50.173Z,101969.27
2018-12-15T20:29:19.592Z,101964.88
2018-12-15T20:31:49.235Z,101955.78
2018-12-15T20:34:22.238Z,101953.59
2018-12-15T20:36:51.561Z,101966.31
2018-12-15T20:39:20.852Z,101964.54
2018-12-15T20:41:50.131Z,101950.92
2018-12-15T20:44:19.885Z,101953.56
2018-12-15T20:46:49.345Z,101944.32
2018-12-15T20:49:20.149Z,101937.38
2018-12-15T20:51:49.575Z,101934.31
2018-12-15T20:54:21.347Z,101923.34
2018-12-15T20:56:50.687Z,101915.47
2018-12-15T20:59:19.990Z,101921.64
2018-12-15T21:01:49.777Z,101920.30
2018-12-15T21:04:19.890Z,101922.92
2018-12-15T21:06:49.303Z,101922.00
2018-12-15T21:09:18.622Z,101916.78
2018-12-15T21:11:48.040Z,101903.23
2018-12-15T21:14:17.329Z,101910.25
2018-12-15T21:16:46.767Z,101916.78
2018-12-15T21:19:16.344Z,101908.42
2018-12-15T21:21:49.418Z,101911.50
2018-12-15T21:24:18.761Z,101912.81
2018-12-15T21:26:49.309Z,101904.06
2018-12-15T21:29:18.693Z,101904.01
2018-12-15T21:31:48.116Z,101892.23
2018-12-15T21:34:17.561Z,101887.42
2018-12-15T21:36:47.003Z,101889.17
2018-12-15T21:39:16.452Z,101887.02
2018-12-15T21:41:46.013Z,101889.16
2018-12-15T21:44:15.809Z,101885.20
2018-12-15T21:46:45.233Z,101886.43
2018-12-15T21:49:14.453Z,101880.80
2018-12-15T21:51:44.183Z,101870.31
2018-12-15T21:54:13.681Z,101862.95
2018-12-15T21:56:43.409Z,101848.09
2018-12-15T21:59:12.700Z,101844.98
2018-12-15T22:01:41.938Z,101846.77
2018-12-15T22:04:11.596Z,101834.23
2018-12-15T22:06:41.136Z,101826.72
2018-12-15T22:09:10.381Z,101820.66
2018-12-15T22:11:39.843Z,101815.02
2018-12-15T22:14:09.159Z,101820.29
2018-12-15T22:16:38.463Z,101813.63
2018-12-15T22:19:07.763Z,101807.00
2018-12-15T22:21:37.368Z,101798.24
2018-12-15T22:24:06.841Z,101795.13
2018-12-15T22:26:36.225Z,101789.01
2018-12-15T22:29:05.505Z,101782.91
2018-12-15T22:31:35.703Z,101768.00
2018-12-15T22:34:05.250Z,101762.74
2018-12-15T22:36:34.669Z,101759.27
2018-12-15T22:39:05.736Z,101760.63
2018-12-15T22:41:35.103Z,101754.96
2018-12-15T22:44:05.658Z,101744.09
2018-12-15T22:46:35.300Z,101736.23
2018-12-15T22:49:04.554Z,101731.00
2018-12-15T22:51:35.054Z,101727.48
2018-12-15T22:54:05.055Z,101718.32
2018-12-15T22:56:34.323Z,101721.41
2018-12-15T22:59:03.693Z,101720.12
2018-12-15T23:01:37.408Z,101717.47
2018-12-15T23:06:42.377Z,101702.70
2018-12-15T23:09:11.838Z,101708.45
2018-12-15T23:11:41.181Z,101694.89
2018-12-15T23:14:10.746Z,101696.66
2018-12-15T23:16:40.095Z,101697.48
2018-12-15T23:19:09.436Z,101695.29
2018-12-15T23:21:38.878Z,101692.75
2018-12-15T23:24:08.195Z,101687.56
2018-12-15T23:26:37.634Z,101676.58
2018-12-15T23:29:07.326Z,101677.44
2018-12-15T23:31:37.059Z,101667.93
2018-12-15T23:34:06.323Z,101676.64
2018-12-15T23:36:35.899Z,101664.82
2018-12-15T23:39:07.871Z,101656.48
2018-12-15T23:41:37.413Z,101661.30
2018-12-15T23:44:06.653Z,101653.39
2018-12-15T23:46:36.239Z,101649.01
2018-12-15T23:49:05.718Z,101649.12
2018-12-15T23:51:34.990Z,101641.67
2018-12-15T23:54:04.259Z,101635.16
2018-12-15T23:56:33.729Z,101639.47
2018-12-15T23:59:03.025Z,101639.41
